Time;durP1;ratioP1;P1;durP2;ratioP2;P2;SDS_P1;SDS_P2;PMS_P1;PMS_P2;Temp;Humidity;BMP_temperature;BMP_pressure;BME280_temperature;BME280_humidity;BME280_pressure;Samples;Min_cycle;Max_cycle;Signal;HPM_P1;HPM_P2
2023/06/24 00:02:23;;;;;;;11.80;9.45;;;;;;;20.86;100.00;101091.22;5054102;28;20047;-74
2023/06/24 00:04:49;;;;;;;12.00;8.88;;;;;;;20.84;100.00;101150.72;5053821;28;20035;-74
2023/06/24 00:07:15;;;;;;;11.27;9.27;;;;;;;20.90;100.00;101251.28;5053445;28;20103;-74
2023/06/24 00:13:02;;;;;;;14.32;9.38;;;;;;;21.10;100.00;101175.28;5053805;28;20036;-74
2023/06/24 00:15:27;;;;;;;11.07;9.50;;;;;;;21.52;100.00;101246.34;5052688;28;20029;-74
2023/06/24 00:17:53;;;;;;;11.32;9.48;;;;;;;21.28;100.00;101254.53;5053720;28;20534;-73
2023/06/24 00:20:19;;;;;;;11.00;8.90;;;;;;;21.43;100.00;101230.47;5052965;28;20040;-74
2023/06/24 00:22:48;;;;;;;10.13;8.73;;;;;;;20.84;100.00;101160.25;5053419;28;20025;-74
2023/06/24 00:25:14;;;;;;;10.32;9.13;;;;;;;21.00;100.00;101177.47;5035232;28;20029;-74
2023/06/24 00:27:41;;;;;;;11.02;9.13;;;;;;;21.17;100.00;101241.31;5053451;28;20021;-74
2023/06/24 00:30:07;;;;;;;10.90;9.05;;;;;;;21.27;100.00;101204.53;5052045;28;20036;-74
2023/06/24 00:32:33;;;;;;;11.52;9.13;;;;;;;20.66;100.00;101160.25;5052451;28;20121;-74
2023/06/24 00:34:59;;;;;;;12.93;9.38;;;;;;;20.91;100.00;101241.78;5053142;28;20104;-74
2023/06/24 00:37:25;;;;;;;10.73;9.43;;;;;;;20.99;100.00;101256.00;5052088;28;20033;-74
2023/06/24 00:39:51;;;;;;;11.88;9.55;;;;;;;20.90;100.00;101290.06;5051701;28;20032;-73
2023/06/24 00:42:17;;;;;;;11.68;9.05;;;;;;;20.27;100.00;100989.19;5053139;28;20111;-75
2023/06/24 00:44:43;;;;;;;15.82;10.05;;;;;;;20.71;100.00;101129.88;5052493;28;20376;-74
2023/06/24 00:47:08;;;;;;;10.20;9.20;;;;;;;20.18;100.00;101058.53;5052985;28;20458;-74
2023/06/24 00:49:34;;;;;;;12.00;10.05;;;;;;;20.49;100.00;101079.34;5052131;28;20190;-74
2023/06/24 00:52:00;;;;;;;10.98;9.38;;;;;;;20.74;100.00;101131.44;5051419;28;20032;-74
2023/06/24 00:54:30;;;;;;;12.50;9.90;;;;;;;20.27;100.00;101130.41;5052977;28;20028;-74
2023/06/24 00:56:56;;;;;;;13.60;10.00;;;;;;;20.16;100.00;101168.81;5051500;28;20123;-74
2023/06/24 00:59:23;;;;;;;14.02;10.13;;;;;;;19.63;100.00;101117.16;5052882;28;20075;-74
2023/06/24 01:01:52;;;;;;;12.85;9.65;;;;;;;20.17;100.00;101183.38;5052726;28;20029;-74
2023/06/24 01:04:18;;;;;;;14.32;10.02;;;;;;;20.21;100.00;101265.03;5051021;28;20031;-74
2023/06/24 01:06:44;;;;;;;13.77;9.48;;;;;;;20.53;100.00;101256.59;5052055;28;20032;-74
2023/06/24 01:09:09;;;;;;;13.82;9.90;;;;;;;20.34;100.00;101272.13;5050978;28;20021;-74
2023/06/24 01:11:35;;;;;;;11.07;9.55;;;;;;;20.32;100.00;101258.44;5051097;28;20680;-74
2023/06/24 01:14:00;;;;;;;12.20;9.98;;;;;;;20.13;100.00;101262.78;5052233;28;20074;-74
2023/06/24 01:16:38;;;;;;;14.50;10.88;;;;;;;20.05;100.00;101275.22;5051867;28;20083;-74
2023/06/24 01:19:33;;;;;;;12.77;9.80;;;;;;;19.82;100.00;101257.34;5051005;28;20135;-74
2023/06/24 01:22:25;;;;;;;10.27;9.15;;;;;;;20.19;100.00;101244.44;5052544;28;20036;-74
2023/06/24 01:28:15;;;;;;;12.98;9.73;;;;;;;20.07;100.00;101269.97;5052484;28;20159;-74
2023/06/24 01:30:59;;;;;;;12.65;9.63;;;;;;;19.99;100.00;101244.50;5051653;28;20055;-75
2023/06/24 01:33:36;;;;;;;12.60;10.18;;;;;;;19.97;100.00;101259.22;5052355;28;20024;-74
2023/06/24 01:36:05;;;;;;;13.70;10.27;;;;;;;19.52;100.00;101197.66;5050954;28;20029;-74
2023/06/24 01:38:46;;;;;;;13.57;10.25;;;;;;;19.60;100.00;101190.41;5050845;28;20029;-74
2023/06/24 01:44:16;;;;;;;12.40;10.13;;;;;;;19.60;100.00;101192.97;5052160;28;20278;-73
2023/06/24 01:46:44;;;;;;;13.40;11.00;;;;;;;19.52;100.00;101238.09;5051546;28;20029;-74
2023/06/24 01:49:14;;;;;;;13.48;10.55;;;;;;;19.45;100.00;101195.41;5050720;28;20028;-74
2023/06/24 01:51:43;;;;;;;12.23;10.68;;;;;;;19.55;100.00;101188.94;5052004;28;20104;-74
2023/06/24 01:54:13;;;;;;;14.68;10.75;;;;;;;19.59;100.00;101172.41;5051522;28;20040;-75
2023/06/24 01:56:41;;;;;;;13.60;10.93;;;;;;;19.75;100.00;101219.81;5055482;28;20072;-75
2023/06/24 02:02:29;;;;;;;12.25;10.95;;;;;;;19.65;100.00;101146.28;5056580;28;20082;-74
2023/06/24 02:04:56;;;;;;;13.23;10.90;;;;;;;19.29;100.00;101128.16;5054403;28;20025;-74
2023/06/24 02:07:23;;;;;;;14.90;10.48;;;;;;;19.44;100.00;101165.34;5055570;28;20055;-74
2023/06/24 02:09:50;;;;;;;13.40;10.57;;;;;;;19.45;100.00;101205.72;5054407;28;20027;-74
2023/06/24 02:12:15;;;;;;;12.10;10.93;;;;;;;18.93;100.00;101127.22;5056041;28;20021;-74
2023/06/24 02:14:41;;;;;;;13.57;10.93;;;;;;;19.33;100.00;101127.13;5054924;28;20070;-74
2023/06/24 02:17:10;;;;;;;12.70;11.40;;;;;;;19.32;100.00;101165.88;5055633;28;20040;-74
2023/06/24 02:19:38;;;;;;;17.08;10.95;;;;;;;19.96;100.00;101171.50;5037792;28;20083;-74
2023/06/24 02:22:09;;;;;;;14.15;11.80;;;;;;;19.51;100.00;101136.63;5055601;28;20111;-74
2023/06/24 02:24:36;;;;;;;16.67;11.90;;;;;;;19.39;100.00;101169.91;5037952;28;20036;-74
2023/06/24 02:27:03;;;;;;;13.02;11.40;;;;;;;18.66;100.00;101062.25;5055847;28;20029;-74
2023/06/24 02:29:30;;;;;;;15.95;11.65;;;;;;;19.48;100.00;101178.03;5055456;28;20021;-75
2023/06/24 02:31:55;;;;;;;14.05;11.32;;;;;;;18.98;100.00;101125.25;5055629;28;20031;-75
2023/06/24 02:34:23;;;;;;;13.43;11.98;;;;;;;19.25;100.00;101188.53;5055611;28;20025;-74
2023/06/24 02:40:11;;;;;;;15.52;11.38;;;;;;;19.36;100.00;101131.31;5055591;28;20075;-74
2023/06/24 02:42:36;;;;;;;13.85;11.02;;;;;;;19.01;100.00;101110.50;5054643;28;20029;-75
2023/06/24 02:45:05;;;;;;;12.88;11.40;;;;;;;19.44;100.00;101194.56;5055573;28;20025;-75
2023/06/24 02:47:32;;;;;;;15.40;11.25;;;;;;;19.63;100.00;101228.94;5055415;28;20025;-73
2023/06/24 02:53:19;;;;;;;14.57;11.63;;;;;;;19.60;100.00;101210.19;5051462;28;20055;-74
2023/06/24 02:55:45;;;;;;;13.10;11.68;;;;;;;19.18;100.00;101202.59;5054859;28;20029;-74
2023/06/24 02:58:11;;;;;;;14.27;12.13;;;;;;;19.34;100.00;101237.16;5055178;28;20029;-74
2023/06/24 03:00:37;;;;;;;14.90;11.68;;;;;;;19.70;100.00;101243.28;5054900;28;20025;-74
2023/06/24 03:03:04;;;;;;;18.05;12.82;;;;;;;19.55;100.00;101248.28;5054960;28;20120;-74
2023/06/24 03:05:32;;;;;;;16.17;12.27;;;;;;;19.27;100.00;101207.34;5053850;28;20029;-76
2023/06/24 03:07:58;;;;;;;13.90;12.30;;;;;;;19.46;100.00;101215.13;5054527;28;20107;-73
2023/06/24 03:13:46;;;;;;;14.43;12.93;;;;;;;19.59;100.00;101237.72;5054811;28;20506;-74
2023/06/24 03:16:14;;;;;;;14.23;12.73;;;;;;;19.16;100.00;101186.34;5054145;28;20028;-73
2023/06/24 03:18:41;;;;;;;16.10;12.55;;;;;;;19.07;100.00;101173.03;5053733;28;20029;-74
2023/06/24 03:21:08;;;;;;;15.13;12.57;;;;;;;19.57;100.00;101236.16;5054639;28;20031;-73
2023/06/24 03:26:56;;;;;;;14.10;12.57;;;;;;;19.45;100.00;101203.16;5055018;28;20124;-75
2023/06/24 03:29:23;;;;;;;14.85;12.35;;;;;;;19.24;100.00;101216.94;5054640;28;20115;-74
2023/06/24 03:31:48;;;;;;;14.63;12.65;;;;;;;19.67;100.00;101292.44;5052746;28;20047;-74
2023/06/24 03:34:14;;;;;;;15.43;12.88;;;;;;;19.83;100.00;101277.09;5053992;28;20479;-74
2023/06/24 03:40:00;;;;;;;18.33;13.77;;;;;;;19.93;100.00;101206.06;5054585;28;20036;-73
2023/06/24 03:42:26;;;;;;;15.90;12.68;;;;;;;19.93;100.00;101269.78;5053738;28;20287;-73
2023/06/24 03:44:51;;;;;;;21.02;12.45;;;;;;;19.81;100.00;101235.84;5053019;28;20028;-74
2023/06/24 03:47:16;;;;;;;14.35;12.88;;;;;;;19.89;100.00;101248.41;5035989;28;20078;-74
2023/06/24 03:49:42;;;;;;;14.68;12.63;;;;;;;19.23;100.00;101171.44;5053922;28;20067;-74
2023/06/24 03:52:08;;;;;;;15.60;12.98;;;;;;;19.66;100.00;101209.91;5036407;28;20120;-73
2023/06/24 03:54:34;;;;;;;15.65;13.40;;;;;;;19.77;100.00;101260.13;5054094;28;20044;-74
2023/06/24 03:56:59;;;;;;;15.43;13.80;;;;;;;19.42;100.00;101209.28;5052310;28;20029;-73
2023/06/24 03:59:25;;;;;;;17.08;13.93;;;;;;;20.07;100.00;101294.06;5052596;28;20597;-75
2023/06/24 04:01:51;;;;;;;16.00;14.30;;;;;;;19.45;100.00;101224.59;5053675;28;20031;-74
2023/06/24 04:04:16;;;;;;;16.05;13.35;;;;;;;19.97;100.00;101238.56;5054228;28;20487;-74
2023/06/24 04:10:08;;;;;;;17.85;13.20;;;;;;;20.06;100.00;101243.31;5054350;28;20032;-74
2023/06/24 04:15:55;;;;;;;15.73;13.30;;;;;;;20.63;100.00;101300.00;5054231;28;20102;-75
2023/06/24 04:18:20;;;;;;;19.63;13.45;;;;;;;20.61;100.00;101295.81;5053783;28;20467;-73
2023/06/24 04:20:46;;;;;;;14.82;12.65;;;;;;;20.79;100.00;101299.25;5037803;28;20036;-74
2023/06/24 04:23:14;;;;;;;16.67;12.90;;;;;;;20.69;100.00;101262.69;5055263;28;20021;-74
2023/06/24 04:29:02;;;;;;;16.00;12.70;;;;;;;20.92;100.00;101290.00;5055034;28;20131;-74
2023/06/24 04:31:27;;;;;;;13.90;12.40;;;;;;;21.02;100.00;101311.91;5036411;28;20436;-74
2023/06/24 04:33:53;;;;;;;16.77;12.63;;;;;;;21.35;100.00;101324.00;5053352;28;20028;-73
2023/06/24 04:36:19;;;;;;;16.90;13.10;;;;;;;21.51;100.00;101337.84;5051653;28;20029;-74
2023/06/24 04:42:06;;;;;;;15.75;12.38;;;;;;;21.59;100.00;101317.56;5053727;28;20464;-74
2023/06/24 04:47:53;;;;;;;15.30;12.48;;;;;;;22.17;100.00;101319.69;5053264;28;20089;-74
2023/06/24 04:53:40;;;;;;;14.15;11.23;;;;;;;21.98;100.00;101293.94;5040094;28;20072;-74
2023/06/24 04:56:06;;;;;;;16.50;12.20;;;;;;;22.13;100.00;101268.94;5051594;28;20029;-74
2023/06/24 04:58:31;;;;;;;13.88;11.57;;;;;;;22.08;100.00;101245.91;5034690;28;20101;-74
2023/06/24 05:04:18;;;;;;;16.17;12.13;;;;;;;22.24;100.00;101251.06;5052968;28;20060;-74
2023/06/24 05:06:44;;;;;;;12.38;11.10;;;;;;;22.84;100.00;101325.41;5052052;28;20464;-74
2023/06/24 05:09:13;;;;;;;15.40;12.23;;;;;;;23.00;100.00;101263.94;5052420;28;20066;-74
2023/06/24 05:11:39;;;;;;;18.05;12.88;;;;;;;23.11;100.00;101303.09;5034664;28;20102;-73
2023/06/24 05:17:26;;;;;;;14.07;11.55;;;;;;;23.22;100.00;101318.00;5052824;28;20119;-73
2023/06/24 05:19:52;;;;;;;13.80;11.13;;;;;;;23.07;100.00;101270.44;5051881;28;20116;-73
2023/06/24 05:22:17;;;;;;;14.88;11.27;;;;;;;23.66;100.00;101289.41;5052230;28;20100;-74
2023/06/24 05:24:43;;;;;;;15.80;11.27;;;;;;;24.02;100.00;101211.78;5051677;28;20040;-73
2023/06/24 05:27:10;;;;;;;12.07;10.82;;;;;;;23.93;100.00;101056.41;5052324;28;20028;-74
2023/06/24 05:29:35;;;;;;;14.50;11.38;;;;;;;24.06;100.00;100920.41;5052161;28;20158;-74
2023/06/24 05:32:03;;;;;;;12.48;10.45;;;;;;;24.11;100.00;100859.50;5051149;28;20119;-73
2023/06/24 05:37:50;;;;;;;11.10;9.15;;;;;;;24.85;100.00;100394.41;5053026;28;20035;-77
2023/06/24 05:43:37;;;;;;;10.93;9.00;;;;;;;24.09;100.00;100478.38;5054060;28;20170;-76
2023/06/24 05:46:03;;;;;;;11.18;9.60;;;;;;;24.40;100.00;100294.88;5051642;28;20496;-74
2023/06/24 05:48:28;;;;;;;9.75;8.85;;;;;;;25.03;100.00;100121.44;5053304;28;20514;-75
2023/06/24 05:50:53;;;;;;;10.43;8.45;;;;;;;24.67;100.00;100094.94;5052869;28;20089;-75
2023/06/24 05:56:47;;;;;;;11.65;7.75;;;;;;;25.47;100.00;100032.50;5041747;28;20048;-73
2023/06/24 05:59:13;;;;;;;9.18;7.20;;;;;;;25.50;100.00;99985.34;5051947;28;20029;-72
2023/06/24 06:01:38;;;;;;;12.52;7.10;;;;;;;24.82;100.00;99810.13;5033889;28;20032;-74
2023/06/24 06:07:25;;;;;;;10.57;7.05;;;;;;;25.72;100.00;99794.88;5052702;28;20044;-74
2023/06/24 06:13:13;;;;;;;10.00;7.60;;;;;;;26.00;100.00;99775.69;5051950;28;20115;-73
2023/06/24 06:19:00;;;;;;;9.57;7.28;;;;;;;25.82;100.00;99755.75;5052406;28;20036;-73
2023/06/24 06:21:25;;;;;;;8.90;7.88;;;;;;;26.31;100.00;99766.59;5050850;28;20032;-72
2023/06/24 06:23:51;;;;;;;8.32;6.65;;;;;;;26.34;100.00;99739.41;5052277;28;20047;-72
2023/06/24 06:26:16;;;;;;;11.40;8.23;;;;;;;26.18;100.00;99770.53;5050116;28;20024;-71
2023/06/24 06:32:03;;;;;;;10.38;7.70;;;;;;;26.92;100.00;99734.56;5051854;28;20036;-75
2023/06/24 06:34:29;;;;;;;9.07;6.80;;;;;;;26.85;100.00;99773.47;5051588;28;20037;-73
2023/06/24 06:36:54;;;;;;;10.70;7.63;;;;;;;27.02;100.00;99749.13;5050284;28;20395;-69
2023/06/24 06:39:19;;;;;;;9.48;8.27;;;;;;;26.96;100.00;99686.28;5051163;28;20033;-73
2023/06/24 06:45:07;;;;;;;11.38;7.55;;;;;;;27.24;100.00;99716.44;5055580;28;20074;-74
2023/06/24 06:47:32;;;;;;;11.93;8.13;;;;;;;27.40;100.00;99706.94;5053771;28;20029;-74
2023/06/24 06:49:58;;;;;;;10.50;7.80;;;;;;;27.35;100.00;99698.78;5055463;28;20025;-72
2023/06/24 06:52:23;;;;;;;7.93;7.13;;;;;;;27.11;100.00;99628.13;5055200;28;20057;-74
2023/06/24 06:54:48;;;;;;;9.48;7.03;;;;;;;27.81;100.00;99675.72;5055237;28;20024;-74
2023/06/24 07:00:35;;;;;;;;;;;;;;;27.08;100.00;99678.00;5055759;28;20123;-72
2023/06/24 07:03:01;;;;;;;9.77;8.03;;;;;;;27.29;100.00;99604.53;5036612;28;19940;-71
2023/06/24 07:05:26;;;;;;;8.13;7.32;;;;;;;28.05;100.00;99639.19;5053393;28;20274;-72
2023/06/24 07:07:53;;;;;;;8.25;7.38;;;;;;;27.62;100.00;99597.59;5054664;28;20082;-72
2023/06/24 07:13:40;;;;;;;7.45;6.75;;;;;;;27.64;100.00;99562.50;5054913;28;20044;-69
2023/06/24 07:16:05;;;;;;;10.32;9.13;;;;;;;27.54;100.00;99524.44;5053998;28;20033;-73
2023/06/24 07:18:31;;;;;;;10.20;7.90;;;;;;;28.59;100.00;99591.44;5054963;28;20025;-73
2023/06/24 07:21:00;;;;;;;9.10;6.80;;;;;;;28.36;100.00;99527.69;5053932;28;20095;-73
2023/06/24 07:26:47;;;;;;;12.90;8.52;;;;;;;27.44;100.00;98822.00;5055424;28;20055;-77
2023/06/24 07:29:13;;;;;;;12.43;8.32;;;;;;;29.02;100.00;98870.88;5053409;28;20455;-76
2023/06/24 07:31:38;;;;;;;8.23;7.30;;;;;;;28.93;100.00;98882.47;5055020;28;20382;-75
2023/06/24 07:34:04;;;;;;;8.52;7.20;;;;;;;29.34;100.00;99036.41;5054128;28;20035;-78
2023/06/24 07:39:52;;;;;;;9.15;7.10;;;;;;;29.82;100.00;99802.19;5054472;28;20068;-73
2023/06/24 07:42:18;;;;;;;8.43;7.22;;;;;;;28.73;100.00;99985.22;5052953;28;20123;-73
2023/06/24 07:44:48;;;;;;;7.97;7.03;;;;;;;29.46;100.00;100004.53;5053085;28;20467;-73
2023/06/24 07:47:13;;;;;;;8.13;7.03;;;;;;;28.88;100.00;100146.78;5052004;28;20032;-73
2023/06/24 07:49:39;;;;;;;7.00;6.40;;;;;;;28.83;100.00;100148.25;5052358;28;20033;-73
2023/06/24 07:52:04;;;;;;;7.75;7.00;;;;;;;29.67;100.00;100252.16;5054230;28;20102;-72
2023/06/24 07:54:30;;;;;;;8.48;6.97;;;;;;;29.22;100.00;100256.06;5053757;28;20036;-73
2023/06/24 07:56:56;;;;;;;7.72;6.93;;;;;;;29.92;100.00;100276.72;5053824;28;20505;-73
2023/06/24 07:59:21;;;;;;;8.25;7.10;;;;;;;30.52;100.00;100350.88;5052195;28;20025;-73
2023/06/24 08:01:47;;;;;;;9.75;6.80;;;;;;;29.63;100.00;100345.22;5052714;28;20021;-73
2023/06/24 08:04:12;;;;;;;8.27;7.20;;;;;;;29.81;100.00;100314.53;5052610;28;20464;-74
2023/06/24 08:09:59;;;;;;;7.60;6.75;;;;;;;29.80;100.00;100436.19;5054096;28;20531;-72
2023/06/24 08:15:46;;;;;;;8.88;7.22;;;;;;;30.65;100.00;100461.53;5053941;28;20028;-73
2023/06/24 08:21:34;;;;;;;10.70;7.00;;;;;;;29.89;100.00;100502.63;5054097;28;20036;-74
2023/06/24 08:27:21;;;;;;;8.65;6.88;;;;;;;29.97;100.00;100476.44;5053580;28;20109;-73
2023/06/24 08:29:46;;;;;;;9.02;7.00;;;;;;;29.32;100.00;100432.31;5053375;28;20463;-75
2023/06/24 08:32:11;;;;;;;10.60;7.15;;;;;;;29.70;100.00;100431.97;5053939;28;20055;-74
2023/06/24 08:34:37;;;;;;;9.05;6.93;;;;;;;29.81;100.00;100485.00;5051725;28;20040;-73
2023/06/24 08:40:24;;;;;;;10.10;7.03;;;;;;;30.77;100.00;100395.41;5053400;28;20064;-72
2023/06/24 08:42:49;;;;;;;7.88;6.13;;;;;;;30.65;100.00;100391.44;5052597;28;20469;-73
2023/06/24 08:45:14;;;;;;;8.93;6.70;;;;;;;30.11;100.00;100404.22;5051771;28;20036;-72
2023/06/24 08:47:41;;;;;;;9.88;6.60;;;;;;;31.38;100.00;100423.06;5055873;28;20028;-73
2023/06/24 08:53:28;;;;;;;8.57;6.50;;;;;;;30.27;100.00;100462.81;5059334;28;20521;-74
2023/06/24 08:55:54;;;;;;;6.82;5.97;;;;;;;31.02;100.00;100398.09;5053077;28;20124;-72
2023/06/24 08:58:20;;;;;;;9.18;6.32;;;;;;;31.36;100.00;100352.22;5052670;28;20048;-74
2023/06/24 09:00:46;;;;;;;7.90;6.35;;;;;;;31.83;100.00;100426.00;5052283;28;20463;-72
2023/06/24 09:06:33;;;;;;;8.68;6.20;;;;;;;31.43;100.00;100383.97;5052524;28;20116;-72
2023/06/24 09:08:58;;;;;;;8.65;6.38;;;;;;;31.67;100.00;100370.78;5050860;28;20123;-72
2023/06/24 09:11:28;;;;;;;7.03;6.30;;;;;;;31.96;100.00;100365.78;5050923;28;20492;-72
2023/06/24 09:17:15;;;;;;;11.05;5.70;;;;;;;32.25;100.00;100358.06;5052680;28;20132;-73
2023/06/24 09:19:41;;;;;;;7.43;6.15;;;;;;;31.74;100.00;100418.25;5052502;28;20071;-73
2023/06/24 09:22:08;;;;;;;7.45;6.15;;;;;;;32.00;100.00;100366.25;5051233;28;20025;-72
2023/06/24 09:24:35;;;;;;;6.75;5.97;;;;;;;32.38;100.00;100362.78;5050999;28;20065;-73
2023/06/24 09:30:23;;;;;;;6.93;6.28;;;;;;;32.29;100.00;100359.34;5051985;28;20039;-71
2023/06/24 09:32:50;;;;;;;8.65;6.30;;;;;;;31.93;100.00;100362.66;5050709;28;20021;-71
2023/06/24 09:35:21;;;;;;;6.85;6.03;;;;;;;31.80;100.00;100363.16;5049424;28;20025;-72
2023/06/24 09:37:56;;;;;;;;;;;;;;;32.42;100.00;100404.41;5045839;28;20479;-71
2023/06/24 09:40:22;;;;;;;6.53;5.93;;;;;;;32.96;100.00;100370.97;5043441;28;19904;-71
2023/06/24 09:42:55;;;;;;;9.68;6.20;;;;;;;32.67;100.00;100388.47;5048143;28;20086;-71
2023/06/24 09:45:28;;;;;;;7.10;6.13;;;;;;;32.18;100.00;100370.28;5048328;28;20029;-72
2023/06/24 09:47:54;;;;;;;8.32;5.85;;;;;;;31.76;100.00;100413.66;5049245;28;20021;-71
2023/06/24 09:50:20;;;;;;;8.73;6.20;;;;;;;32.17;100.00;100347.56;5048812;28;20037;-69
2023/06/24 09:52:47;;;;;;;6.93;6.28;;;;;;;31.02;100.00;100396.25;5049113;28;20060;-72
2023/06/24 09:55:14;;;;;;;9.05;6.18;;;;;;;32.57;100.00;100380.78;5048110;28;20028;-72
2023/06/24 09:57:43;;;;;;;6.85;6.10;;;;;;;32.16;100.00;100409.13;5048448;28;20508;-69
2023/06/24 10:00:10;;;;;;;8.63;6.05;;;;;;;32.04;100.00;100384.16;5048192;28;20029;-70
2023/06/24 10:02:36;;;;;;;7.18;6.47;;;;;;;32.14;100.00;100347.94;5046868;28;20082;-69
2023/06/24 10:05:02;;;;;;;8.55;5.75;;;;;;;31.99;100.00;100325.13;5048469;28;20025;-69
2023/06/24 10:07:31;;;;;;;8.20;6.30;;;;;;;32.49;100.00;100382.66;5047072;28;20025;-70
2023/06/24 10:09:57;;;;;;;8.05;5.80;;;;;;;32.88;100.00;100330.66;5047857;28;20129;-70
2023/06/24 10:12:28;;;;;;;8.43;6.10;;;;;;;32.16;100.00;100266.97;5030031;28;20111;-72
2023/06/24 10:14:54;;;;;;;9.85;6.40;;;;;;;32.96;100.00;100354.31;5048433;28;20056;-71
2023/06/24 10:17:19;;;;;;;7.53;6.13;;;;;;;32.89;100.00;100354.22;5052224;28;20075;-71
2023/06/24 10:19:45;;;;;;;7.57;6.20;;;;;;;32.83;100.00;100356.72;5052280;28;20025;-71
2023/06/24 10:22:11;;;;;;;7.25;6.55;;;;;;;33.06;100.00;100370.75;5043839;28;20407;-73
2023/06/24 10:24:44;;;;;;;6.82;6.07;;;;;;;33.46;100.00;100320.22;5038134;28;20082;-73
2023/06/24 10:27:15;;;;;;;6.93;6.18;;;;;;;33.21;100.00;100348.69;5054070;28;20093;-73
2023/06/24 10:33:02;;;;;;;7.10;6.40;;;;;;;32.51;100.00;100336.69;5055477;28;20031;-72
2023/06/24 10:35:32;;;;;;;7.35;6.60;;;;;;;32.83;100.00;100275.03;5054617;28;20033;-72
2023/06/24 10:38:01;;;;;;;8.52;6.35;;;;;;;33.34;100.00;100336.72;5054112;28;20449;-72
2023/06/24 10:40:38;;;;;;;6.65;6.05;;;;;;;32.79;100.00;100295.66;5054805;28;20486;-72
2023/06/24 10:43:25;;;;;;;7.10;6.40;;;;;;;33.47;100.00;100328.97;5055069;28;20487;-72
2023/06/24 10:45:58;;;;;;;7.10;6.30;;;;;;;33.39;100.00;100318.50;5054705;28;20446;-72
2023/06/24 10:51:44;;;;;;;;;;;;;;;32.00;100.00;100326.75;5055743;28;20075;-73
2023/06/24 10:54:10;;;;;;;8.43;7.00;;;;;;;33.03;100.00;100281.47;5054675;28;19956;-73
2023/06/24 10:56:37;;;;;;;7.53;6.78;;;;;;;32.26;100.00;100316.75;5050153;28;20395;-73
2023/06/24 10:59:03;;;;;;;6.82;6.22;;;;;;;33.82;100.00;100286.03;5049844;28;20025;-73
2023/06/24 11:01:28;;;;;;;8.60;6.70;;;;;;;32.96;100.00;100265.53;5034461;28;20090;-73
2023/06/24 11:03:53;;;;;;;10.15;6.70;;;;;;;32.78;100.00;100315.13;5034523;28;20120;-72
2023/06/24 11:06:19;;;;;;;10.25;6.85;;;;;;;32.10;100.00;100291.34;5035001;28;20434;-74
2023/06/24 11:08:45;;;;;;;7.05;6.22;;;;;;;33.14;100.00;100246.75;5049647;28;20021;-69
2023/06/24 11:14:36;;;;;;;7.40;6.20;;;;;;;33.21;100.00;100179.09;5035294;28;20116;-74
2023/06/24 11:17:03;;;;;;;7.10;6.45;;;;;;;33.80;100.00;100196.47;5033537;28;20056;-73
2023/06/24 11:19:30;;;;;;;8.25;6.03;;;;;;;33.24;100.00;100226.19;5050244;28;20483;-74
2023/06/24 11:22:00;;;;;;;8.52;6.35;;;;;;;33.46;100.00;100208.63;5050499;28;20437;-73
2023/06/24 11:27:51;;;;;;;6.78;6.03;;;;;;;34.06;100.00;100254.88;5034420;28;20095;-74
2023/06/24 11:33:38;;;;;;;8.23;6.85;;;;;;;33.52;100.00;100247.47;5034299;28;20032;-73
2023/06/24 11:36:09;;;;;;;7.15;5.53;;;;;;;32.88;100.00;100201.53;5033871;28;20017;-71
2023/06/24 11:38:36;;;;;;;7.70;6.05;;;;;;;33.57;100.00;100195.81;5049030;28;20025;-71
2023/06/24 11:41:01;;;;;;;6.80;5.70;;;;;;;33.39;100.00;100247.28;5033680;28;20102;-71
2023/06/24 11:46:48;;;;;;;9.23;6.00;;;;;;;33.56;100.00;100199.44;5034362;28;20462;-74
2023/06/24 11:52:35;;;;;;;8.32;6.40;;;;;;;34.07;100.00;100227.44;5034058;28;20167;-74
2023/06/24 11:55:01;;;;;;;6.47;5.88;;;;;;;34.12;100.00;100223.44;5033638;28;20030;-73
2023/06/24 12:00:50;;;;;;;7.65;6.38;;;;;;;33.33;100.00;100169.72;5053668;28;20098;-73
2023/06/24 12:03:15;;;;;;;7.03;5.90;;;;;;;33.96;100.00;100212.09;5052195;28;20086;-74
2023/06/24 12:05:50;;;;;;;7.25;6.55;;;;;;;33.68;100.00;100192.69;5053715;28;20021;-73
2023/06/24 12:08:17;;;;;;;8.52;6.43;;;;;;;33.73;100.00;100207.97;5053399;28;20033;-73
2023/06/24 12:10:44;;;;;;;7.15;6.45;;;;;;;34.32;100.00;100124.06;5053861;28;20055;-73
2023/06/24 12:13:09;;;;;;;10.85;8.27;;;;;;;33.19;100.00;100123.91;5051937;28;20021;-73
2023/06/24 12:15:35;;;;;;;24.50;21.98;;;;;;;34.17;100.00;100186.72;5053041;28;20017;-74
2023/06/24 12:18:02;;;;;;;12.13;10.88;;;;;;;33.83;100.00;100074.66;5052560;28;20460;-73
2023/06/24 12:20:29;;;;;;;8.25;6.65;;;;;;;33.70;100.00;100116.78;5035123;28;20036;-74
2023/06/24 12:22:55;;;;;;;10.60;9.60;;;;;;;34.51;100.00;100174.41;5052139;28;20029;-73
2023/06/24 12:25:20;;;;;;;10.40;8.55;;;;;;;33.17;100.00;100096.09;5051731;28;20450;-73
2023/06/24 12:27:46;;;;;;;9.02;7.82;;;;;;;34.74;100.00;100180.31;5053135;28;20060;-73
2023/06/24 12:30:16;;;;;;;6.63;6.07;;;;;;;34.42;100.00;100140.38;5052711;28;20029;-73
2023/06/24 12:32:42;;;;;;;6.43;5.82;;;;;;;33.03;100.00;100081.13;5035133;28;20036;-73
2023/06/24 12:35:11;;;;;;;6.65;5.80;;;;;;;34.18;100.00;100117.03;5053398;28;20028;-73
2023/06/24 12:40:58;;;;;;;9.60;7.93;;;;;;;32.96;100.00;100073.13;5052870;28;20537;-73
2023/06/24 12:46:45;;;;;;;6.50;5.90;;;;;;;33.34;100.00;100162.63;5052772;28;20032;-74
2023/06/24 12:49:13;;;;;;;6.45;5.70;;;;;;;34.20;100.00;100120.31;5052010;28;20033;-72
2023/06/24 12:51:38;;;;;;;6.37;5.50;;;;;;;33.58;100.00;100149.94;4700564;28;10000071;-72
2023/06/24 12:54:04;;;;;;;6.20;5.60;;;;;;;33.42;100.00;100151.97;5034485;28;20486;-72
2023/06/24 13:00:11;;;;;;;6.22;5.63;;;;;;;33.67;100.00;100143.56;5044148;28;20456;-72
2023/06/24 13:02:38;;;;;;;6.57;5.50;;;;;;;33.04;100.00;100085.41;5033954;28;20128;-72
2023/06/24 13:08:25;;;;;;;7.30;6.00;;;;;;;33.33;100.00;100138.06;5052901;28;20118;-72
2023/06/24 13:10:50;;;;;;;6.53;5.53;;;;;;;34.47;100.00;100124.75;5034623;28;20087;-74
2023/06/24 13:13:16;;;;;;;6.72;6.13;;;;;;;33.42;100.00;100017.47;5034372;28;20033;-74
2023/06/24 13:15:43;;;;;;;7.53;6.07;;;;;;;33.79;100.00;100076.09;5033702;28;20025;-74
2023/06/24 13:21:30;;;;;;;6.60;5.63;;;;;;;33.92;100.00;100033.13;5059410;28;20517;-73
2023/06/24 13:23:57;;;;;;;6.25;5.65;;;;;;;33.42;100.00;100047.25;5040664;28;20029;-72
2023/06/24 13:26:25;;;;;;;6.75;5.70;;;;;;;34.47;100.00;100050.78;5054528;28;20163;-73
2023/06/24 13:28:54;;;;;;;6.50;5.90;;;;;;;34.31;100.00;100088.88;5052136;28;20052;-73
2023/06/24 13:34:53;;;;;;;7.90;5.70;;;;;;;34.25;100.00;100087.00;5052361;28;20082;-73
2023/06/24 13:37:25;;;;;;;7.80;6.32;;;;;;;33.53;100.00;100019.59;5030575;28;20107;-73
2023/06/24 13:39:54;;;;;;;7.15;5.55;;;;;;;34.22;100.00;100107.72;5052215;28;20031;-73
2023/06/24 13:46:20;;;;;;;6.78;5.85;;;;;;;33.40;100.00;100025.53;5052564;28;20183;-73
2023/06/24 13:52:06;;;;;;;;;;;;;;;34.59;100.00;100095.00;5052816;28;20098;-73
2023/06/24 13:58:04;;;;;;;8.38;5.55;;;;;;;34.31;100.00;100041.34;5052326;28;20047;-74
2023/06/24 14:04:16;;;;;;;6.65;5.80;;;;;;;32.52;100.00;99940.63;5033367;28;20044;-73
2023/06/24 14:06:47;;;;;;;6.28;5.68;;;;;;;33.53;100.00;99991.41;5031466;28;20392;-74
2023/06/24 14:09:12;;;;;;;10.10;5.93;;;;;;;33.63;100.00;100018.28;5030602;28;20022;-72
2023/06/24 14:14:59;;;;;;;7.22;5.80;;;;;;;33.94;100.00;100026.66;5032603;28;20083;-73
2023/06/24 14:21:02;;;;;;;6.50;5.90;;;;;;;33.54;100.00;99990.38;5032092;28;20112;-73
2023/06/24 14:26:49;;;;;;;6.75;6.15;;;;;;;34.12;100.00;100055.25;5032241;28;20032;-74
2023/06/24 14:29:15;;;;;;;9.63;7.32;;;;;;;34.55;100.00;100014.47;5030060;28;20021;-74
2023/06/24 14:31:46;;;;;;;6.50;5.90;;;;;;;34.23;100.00;100069.75;5030809;28;20021;-72